Flight Track Log - Related Links

Times and Time Zones

All times are in EDT time to prevent confusion due to time zone crossing. See the N742AX flight status page for this flight to view local times or setup timezone preferences in your user account.

Time Position Orientation Groundspeed Altitude Reporting Facility
EDT Latitude Longitude Course Direction KTS MPH feet Rate Location/Type
Wed 03:26:37 PM 9.1400 -79.6160 351° North 458 527 36,000  Level FlightAware ADS-B
Wed 03:28:37 PM 9.3920 -79.6570 351° North 457 526 36,000  Level FlightAware ADS-B
Wed 03:31:00 PM 10.0478 -79.6805 358° North  Level Estimated
Wed 03:31:57 PM 9.8140 -79.7300 358° North 457 526 36,000  Level FlightAware ADS-B
Wed 03:32:00 PM 10.3229 -79.6903 358° North  Level Estimated
Wed 03:32:47 PM 9.9170 -79.7480 350° North 456 525 36,000  Level FlightAware ADS-B
Wed 03:34:27 PM 10.1260 -79.7840 350° North 454 522 36,000  Level FlightAware ADS-B
Wed 03:35:57 PM 10.3050 -79.8140 351° North 444 511 36,000  Level FlightAware ADS-B
Wed 03:36:37 PM 10.3900 -79.8290 350° North 443 510 36,000  Level FlightAware ADS-B
Wed 03:37:17 PM 10.4710 -79.8430 350° North 442 509 36,000  Level FlightAware ADS-B
Wed 03:37:52 PM 10.5430 -79.8550 351° North 441 507 36,000  Level FlightAware ADS-B
Wed 03:38:57 PM 10.6700 -79.8770 350° North 441 507 36,000  Level FlightAware ADS-B
Wed 03:39:42 PM 10.7650 -79.8940 350° North 440 506 36,000  Level FlightAware ADS-B
Wed 03:40:22 PM 10.8550 -79.9100 350° North 440 506 36,000  Level FlightAware ADS-B
Wed 03:41:17 PM 10.9680 -79.9320 349° North 441 507 36,000  Level FlightAware ADS-B
Wed 03:42:02 PM 11.0620 -79.9490 350° North 441 507 36,000  Level FlightAware ADS-B
Wed 03:42:32 PM 11.1120 -79.9580 350° North 441 507 36,000  Level FlightAware ADS-B
Wed 03:43:17 PM 11.1920 -79.9740 349° North 441 507 36,000  Level FlightAware ADS-B
Wed 03:44:07 PM 11.2770 -79.9910 349° North 441 507 36,000  Level FlightAware ADS-B
Wed 03:44:47 PM 11.3460 -80.0050 349° North 441 507 36,000  Level FlightAware ADS-B
Wed 03:45:27 PM 11.4140 -80.0180 349° North 441 507 36,000  Level FlightAware ADS-B
Wed 03:46:22 PM 11.5830 -80.0400 353° North 441 507 36,000  Level FlightAware ADS-B
Wed 03:47:02 PM 11.6510 -80.0520 350° North 441 507 36,000  Level FlightAware ADS-B
Wed 03:47:42 PM 11.7190 -80.0650 349° North 441 507 36,000  Level FlightAware ADS-B
Wed 03:48:32 PM 11.8050 -80.0800 350° North 441 507 36,000  Level FlightAware ADS-B
Wed 03:49:12 PM 11.8730 -80.0920 350° North 441 507 36,000  Level FlightAware ADS-B
Wed 03:49:52 PM 11.9410 -80.1050 349° North 441 507 36,000  Level FlightAware ADS-B
Wed 03:50:32 PM 12.0100 -80.1170 350° North 441 507 36,000  Level FlightAware ADS-B
Wed 03:51:12 PM 12.0780 -80.1290 350° North 441 507 36,000  Level FlightAware ADS-B
Wed 03:52:02 PM 12.1630 -80.1450 350° North 441 507 36,000  Level FlightAware ADS-B
Wed 03:52:42 PM 12.2320 -80.1570 350° North 441 507 36,000  Level FlightAware ADS-B
Wed 03:53:22 PM 12.3000 -80.1690 350° North 441 507 36,000  Level FlightAware ADS-B
Wed 03:54:02 PM 12.3680 -80.1820 349° North 441 507 36,000  Level FlightAware ADS-B
Wed 03:54:42 PM 12.4370 -80.1940 350° North 441 507 36,000  Level FlightAware ADS-B
Wed 03:55:32 PM 12.5220 -80.2100 350° North 441 507 36,000  Level FlightAware ADS-B
Wed 03:58:00 PM 13.2011 -80.2138 360° North  Level Estimated
Wed 03:59:00 PM 13.4764 -80.2154 360° North  Level Estimated
Wed 04:00:00 PM 13.7518 -80.2169 360° North  Level Estimated
Wed 04:01:00 PM 14.0271 -80.2185 360° North  Level Estimated
Wed 04:02:00 PM 14.3024 -80.2201 360° North  Level Estimated
Wed 04:03:00 PM 14.5777 -80.2216 360° North  Level Estimated
Wed 04:04:00 PM 14.8530 -80.2232 360° North  Level Estimated
Wed 04:05:00 PM 15.1284 -80.2248 360° North  Level Estimated
Wed 04:06:00 PM 15.4037 -80.2264 360° North  Level Estimated
Wed 04:07:00 PM 15.6790 -80.2280 360° North  Level Estimated
Wed 04:08:00 PM 15.9543 -80.2296 360° North  Level Estimated
Wed 04:09:00 PM 16.2296 -80.2312 360° North  Level Estimated
Wed 04:10:00 PM 16.5050 -80.2328 360° North  Level Estimated
Wed 04:11:00 PM 16.7803 -80.2344 360° North  Level Estimated
Wed 04:12:00 PM 17.0556 -80.2360 360° North  Level Estimated
Wed 04:13:00 PM 17.3309 -80.2376 360° North  Level Estimated
Wed 04:14:00 PM 17.6062 -80.2392 360° North  Level Estimated
Wed 04:15:00 PM 17.8816 -80.2408 360° North  Level Estimated
Wed 04:16:00 PM 18.1569 -80.2425 360° North  Level Estimated
Wed 04:17:00 PM 18.4322 -80.2441 360° North  Level Estimated
Wed 04:18:00 PM 18.7075 -80.2457 360° North  Level Estimated
Wed 04:19:00 PM 18.9828 -80.2474 360° North  Level Estimated
Wed 04:20:00 PM 19.2582 -80.2490 360° North  Level Estimated
Wed 04:21:00 PM 19.5335 -80.2507 360° North  Level Estimated
Wed 04:22:00 PM 19.8088 -80.2523 360° North  Level Estimated
Wed 04:23:00 PM 20.0841 -80.2540 360° North  Level Estimated
Wed 04:24:00 PM 20.3594 -80.2557 360° North  Level Estimated
Wed 04:25:00 PM 20.6348 -80.2574 360° North  Level Estimated
Wed 04:26:00 PM 20.9101 -80.2591 360° North  Level Estimated
Wed 04:27:00 PM 21.1854 -80.2607 360° North  Level Estimated
Wed 04:28:00 PM 21.4607 -80.2625 360° North  Level Estimated
Wed 04:29:00 PM 21.7360 -80.2642 360° North  Level Estimated
Wed 04:30:00 PM 22.0114 -80.2659 360° North  Level Estimated
Wed 04:31:00 PM 22.2867 -80.2676 360° North  Level Estimated
Wed 04:32:00 PM 22.5620 -80.2693 360° North  Level Estimated
Wed 04:33:00 PM 22.8373 -80.2710 360° North  Level Estimated
Wed 04:34:00 PM 23.1126 -80.2728 360° North  Level Estimated
Wed 04:35:00 PM 23.3880 -80.2745 360° North  Level Estimated
Wed 04:36:00 PM 23.6633 -80.2763 360° North  Level Estimated
Wed 04:37:00 PM 23.9386 -80.2780 360° North  Level Estimated
Wed 04:38:00 PM 24.2139 -80.2798 360° North  Level Estimated
Wed 04:39:00 PM 24.4892 -80.2816 360° North  Level Estimated
Wed 04:40:00 PM 24.7646 -80.2834 360° North  Level Estimated
Wed 04:41:00 PM 25.0399 -80.2851 360° North  Level Estimated
Wed 04:42:00 PM 25.3152 -80.2869 360° North  Level Estimated
Wed 04:43:00 PM 25.5905 -80.2888 360° North  Level Estimated
Wed 04:44:00 PM 25.7954 -80.2901 360° North  Level Estimated
Wed 04:45:00 PM 25.7954 -80.2901 318° Northwest  Level Estimated
Wed 04:46:00 PM 25.7954 -80.2901 318° Northwest  Level Estimated
Wed 04:47:00 PM 25.7954 -80.2901 318° Northwest  Level Estimated
Wed 04:48:00 PM 25.7954 -80.2901 318° Northwest  Level Estimated
Wed 04:49:00 PM 25.7954 -80.2901 318° Northwest  Level Estimated
Wed 04:50:00 PM 25.7954 -80.2901 318° Northwest  Level Estimated
Wed 04:51:00 PM 25.7954 -80.2901 318° Northwest  Level Estimated
Wed 04:52:00 PM 25.7954 -80.2901 318° Northwest  Level Estimated
Wed 04:53:00 PM 25.7954 -80.2901 318° Northwest  Level Estimated
Wed 04:54:00 PM 25.7954 -80.2901 318° Northwest  Level Estimated
Wed 04:55:00 PM 25.7954 -80.2901 318° Northwest  Level Estimated
Wed 04:56:00 PM 25.7954 -80.2901 318° Northwest  Level Estimated
Wed 04:57:00 PM 25.7954 -80.2901 318° Northwest  Level Estimated
Wed 04:58:00 PM 25.7954 -80.2901 318° Northwest  Level Estimated
Wed 04:59:00 PM 25.7954 -80.2901 318° Northwest  Level Estimated
Wed 05:00:00 PM 25.7954 -80.2901 318° Northwest  Level Estimated
Wed 05:01:00 PM 25.7954 -80.2901 318° Northwest  Level Estimated
Wed 05:02:00 PM 25.7954 -80.2901 318° Northwest  Level Estimated
Wed 05:03:00 PM 25.7954 -80.2901 318° Northwest  Level Estimated
Wed 05:04:00 PM 25.7954 -80.2901 318° Northwest  Level Estimated
Wed 05:05:00 PM 25.7954 -80.2901 318° Northwest  Level Estimated
Wed 05:06:00 PM 25.7954 -80.2901 318° Northwest  Level Estimated
Wed 05:07:00 PM 25.7954 -80.2901 318° Northwest  Level Estimated
Wed 05:08:00 PM 25.7954 -80.2901 318° Northwest  Level Estimated
Wed 05:09:00 PM 25.7954 -80.2901 318° Northwest  Level Estimated
Wed 05:10:00 PM 25.7954 -80.2901 318° Northwest  Level Estimated
Wed 05:11:00 PM 25.7954 -80.2901 318° Northwest  Level Estimated
Wed 05:12:00 PM 25.7954 -80.2901 318° Northwest  Level Estimated
Wed 05:13:00 PM 25.7954 -80.2901 318° Northwest  Level Estimated
Wed 05:14:00 PM 25.7954 -80.2901 318° Northwest  Level Estimated
Wed 05:15:00 PM 25.7954 -80.2901 318° Northwest  Level Estimated
Wed 05:16:00 PM 25.7954 -80.2901 318° Northwest  Level Estimated
Wed 05:17:00 PM 25.7954 -80.2901 318° Northwest  Level Estimated
Wed 05:18:00 PM 25.7954 -80.2901 318° Northwest  Level Estimated
Wed 05:19:00 PM 25.7954 -80.2901 77° East  Level Estimated
Wed 05:20:00 PM 25.7954 -80.2901 77° East  Level Estimated
Wed 05:21:00 PM 25.7954 -80.2901 77° East  Level Estimated
Wed 05:22:00 PM 25.7954 -80.2901 77° East  Level Estimated
Wed 05:22:31 PM 23.2208 -81.2303 77° East 474 545 36,000  Level Miami Center
Wed 05:23:00 PM 25.7954 -80.2901 77° East  Level Estimated
Wed 05:23:31 PM 23.3400 -81.2186 North 465 535 36,000  Level Miami Center
Wed 05:24:00 PM 25.7954 -80.2901 77° East  Level Estimated
Wed 05:25:00 PM 25.7954 -80.2901 77° East  Level Estimated
Wed 05:25:31 PM 23.5792 -81.1836 North 436 502 36,000  Level Miami Center
Wed 05:26:00 PM 25.7954 -80.2901 77° East  Level Estimated
Wed 05:26:31 PM 23.6986 -81.1672 North 430 495 36,000  Level Miami Center
Wed 05:27:00 PM 25.7954 -80.2901 77° East  Level Estimated
Wed 05:27:31 PM 23.8350 -81.1492 North 435 501 36,000  Level Miami Center
Wed 05:28:31 PM 23.9544 -81.1328 North 440 506 36,000  Level Miami Center
Wed 05:29:31 PM 24.0761 -81.1189 North 440 506 36,000 -1,966 Level Miami Center
Wed 05:35:17 PM 24.7490 -81.0270 North 403 464 22,700 -2,087 Descending FlightAware ADS-B
Wed 05:36:02 PM 24.8220 -81.0170 North 402 463 22,400 -212 Descending FlightAware ADS-B
Wed 05:36:42 PM 24.8850 -81.0090 North 402 463 22,400 -2,364 Level FlightAware ADS-B
Wed 05:37:22 PM 24.9750 -80.9940 North 18,600 -3,120 Descending FlightAware ADS-B
Wed 05:38:47 PM 25.1230 -80.9730 North 376 433 15,900 -1,938 Descending FlightAware ADS-B
Wed 05:39:32 PM 25.2050 -80.9610 North 356 410 14,400 -1,906 Descending FlightAware ADS-B
Wed 05:40:12 PM 25.2700 -80.9510 North 355 409 13,200 -1,800 Descending FlightAware ADS-B
Wed 05:40:52 PM 25.3360 -80.9420 North 339 390 12,000 -1,765 Descending FlightAware ADS-B
Wed 05:41:37 PM 25.4060 -80.9320 North 337 388 10,700 -1,129 Descending FlightAware ADS-B
Wed 05:42:17 PM 25.4640 -80.9230 North 307 353 10,400 -494 Descending FlightAware ADS-B
Wed 05:43:02 PM 25.5240 -80.9140 North 278 320 10,000 -500 Descending FlightAware ADS-B
Wed 05:43:17 PM 25.5430 -80.9030 28° Northeast 276 318 9,900 -200 Descending FlightAware ADS-B
Wed 05:43:32 PM 25.5560 -80.8850 51° Northeast 275 316 9,900  Level FlightAware ADS-B
Wed 05:43:57 PM 25.5690 -80.8540 65° Northeast 276 318 9,900 -655 Level FlightAware ADS-B
Wed 05:44:27 PM 25.5900 -80.8190 56° Northeast 273 314 9,300 -1,400 Descending FlightAware ADS-B
Wed 05:44:57 PM 25.6100 -80.7830 58° Northeast 268 308 8,500 -1,636 Descending FlightAware ADS-B
Wed 05:45:22 PM 25.6260 -80.7540 59° Northeast 270 311 7,800 -1,800 Descending FlightAware ADS-B
Wed 05:45:37 PM 25.6370 -80.7350 57° Northeast 269 310 7,300 -1,733 Descending FlightAware ADS-B
Wed 05:46:07 PM 25.6570 -80.7000 58° Northeast 259 298 6,500 -1,418 Descending FlightAware ADS-B
Wed 05:46:32 PM 25.6720 -80.6730 58° Northeast 245 282 6,000 -1,309 Descending FlightAware ADS-B
Wed 05:47:02 PM 25.6910 -80.6420 56° Northeast 238 274 5,300 -1,527 Descending FlightAware ADS-B
Wed 05:47:27 PM 25.7060 -80.6160 57° Northeast 236 272 4,600 -1,309 Descending FlightAware ADS-B
Wed 05:47:57 PM 25.7250 -80.5860 55° Northeast 232 267 4,100 -764 Descending FlightAware ADS-B
Wed 05:48:22 PM 25.7400 -80.5630 54° Northeast 207 238 3,900 -218 Descending FlightAware ADS-B
Wed 05:48:52 PM 25.7560 -80.5380 55° Northeast 201 231 3,900 -100 Level FlightAware ADS-B
Wed 05:49:22 PM 25.7680 -80.5110 64° Northeast 186 214 3,800 -873 Descending FlightAware ADS-B
Wed 05:49:47 PM 25.7700 -80.4860 85° East 194 223 3,100 -1,333 Descending FlightAware ADS-B
Wed 05:50:07 PM 25.7720 -80.4670 83° East 188 216 2,800 -1,200 Descending FlightAware ADS-B
Wed 05:50:42 PM 25.7730 -80.4330 88° East 185 213 2,000 -1,120 Descending FlightAware ADS-B
Wed 05:51:22 PM 25.7750 -80.3990 86° East 159 183 1,400 -825 Descending FlightAware ADS-B
Wed 05:52:02 PM 25.7760 -80.3690 88° East 132 152 900 -706 Descending FlightAware ADS-B
Wed 05:52:47 PM 25.7780 -80.3380 86° East 133 153 400 -429 Descending FlightAware ADS-B
Wed 05:53:12 PM 25.7780 -80.3230 90° East 133 153 400  Level FlightAware ADS-B

Login

Don't have an account? Register now (free) for customized features, flight alerts, and more!